createdAt,value
2017-07-18T00:01:42.674Z,23.65
2017-07-18T00:04:14.593Z,23.69
2017-07-18T00:06:46.067Z,23.01
2017-07-18T00:09:17.554Z,23.32
2017-07-18T00:11:49.241Z,23.13
2017-07-18T00:14:25.332Z,23.38
2017-07-18T00:16:57.495Z,23.55
2017-07-18T00:19:28.956Z,23.35
2017-07-18T00:22:00.538Z,23.50
2017-07-18T00:24:33.738Z,23.26
2017-07-18T00:27:06.364Z,23.45
2017-07-18T00:29:38.552Z,23.54
2017-07-18T00:32:11.530Z,23.79
2017-07-18T00:34:43.374Z,23.65
2017-07-18T00:37:14.815Z,23.44
2017-07-18T00:39:47.874Z,23.50
2017-07-18T00:42:26.581Z,23.51
2017-07-18T00:44:58.452Z,23.41
2017-07-18T00:47:30.355Z,22.68
2017-07-18T00:50:02.267Z,23.02
2017-07-18T00:52:33.792Z,23.13
2017-07-18T00:55:06.481Z,23.21
2017-07-18T00:57:37.983Z,23.64
2017-07-18T01:00:10.615Z,23.02
2017-07-18T01:02:42.385Z,23.61
2017-07-18T01:05:13.770Z,23.31
2017-07-18T01:07:45.464Z,23.45
2017-07-18T01:10:16.818Z,23.66
2017-07-18T01:12:48.868Z,23.60
2017-07-18T01:15:23.584Z,23.70
2017-07-18T01:17:55.151Z,23.08
2017-07-18T01:20:28.152Z,23.20
2017-07-18T01:22:59.534Z,22.82
2017-07-18T01:25:31.037Z,23.31
2017-07-18T01:28:02.870Z,23.31
2017-07-18T01:30:35.439Z,23.06
2017-07-18T01:33:07.874Z,23.01
2017-07-18T01:35:40.716Z,23.08
2017-07-18T01:38:12.299Z,23.19
2017-07-18T01:40:44.021Z,22.92
2017-07-18T01:43:16.843Z,22.38
2017-07-18T01:45:48.801Z,22.16
2017-07-18T01:48:23.118Z,22.45
2017-07-18T01:50:54.852Z,23.03
2017-07-18T01:53:27.992Z,22.98
2017-07-18T01:56:00.012Z,23.07
2017-07-18T01:58:31.865Z,22.37
2017-07-18T02:01:04.717Z,22.81
2017-07-18T02:03:38.314Z,22.91
2017-07-18T02:06:10.882Z,22.46
2017-07-18T02:08:42.812Z,22.94
2017-07-18T02:11:14.435Z,22.33
2017-07-18T02:13:45.664Z,22.29
2017-07-18T02:16:17.695Z,22.57
2017-07-18T02:18:51.029Z,22.52
2017-07-18T02:21:27.485Z,22.56
2017-07-18T02:24:00.834Z,22.77
2017-07-18T02:26:32.785Z,22.63
2017-07-18T02:29:06.308Z,23.03
2017-07-18T02:31:38.009Z,23.08
2017-07-18T02:34:09.907Z,22.91
2017-07-18T02:36:41.908Z,23.00
2017-07-18T02:39:13.400Z,22.75
2017-07-18T02:41:44.939Z,22.74
2017-07-18T02:44:16.262Z,22.30
2017-07-18T02:46:48.070Z,22.43
2017-07-18T02:49:22.890Z,22.82
2017-07-18T02:51:54.357Z,22.38
2017-07-18T02:54:27.018Z,22.03
2017-07-18T02:56:58.522Z,21.92
2017-07-18T02:59:31.059Z,21.65
2017-07-18T03:02:03.106Z,22.05
2017-07-18T03:04:35.893Z,22.23
2017-07-18T03:07:07.306Z,21.95
2017-07-18T03:09:39.497Z,21.82
2017-07-18T03:12:11.503Z,22.36
2017-07-18T03:14:43.048Z,22.43
2017-07-18T03:17:14.452Z,22.37
2017-07-18T03:19:45.798Z,22.67
2017-07-18T03:24:56.373Z,22.33
2017-07-18T03:27:28.004Z,22.21
2017-07-18T03:29:59.640Z,22.61
2017-07-18T03:32:31.383Z,22.25
2017-07-18T03:35:03.791Z,22.24
2017-07-18T03:37:35.344Z,22.32
2017-07-18T03:40:07.587Z,22.25
2017-07-18T03:42:39.537Z,22.16
2017-07-18T03:45:10.849Z,21.86
2017-07-18T03:47:42.356Z,21.55
2017-07-18T03:50:13.992Z,22.19
2017-07-18T03:52:45.991Z,22.48
2017-07-18T03:55:17.438Z,22.16
2017-07-18T03:57:48.952Z,22.18
2017-07-18T04:00:24.041Z,22.64
2017-07-18T04:02:55.651Z,22.67
2017-07-18T04:05:27.681Z,22.15
2017-07-18T04:08:00.254Z,22.78
2017-07-18T04:10:32.746Z,22.53
2017-07-18T04:13:05.199Z,22.06
2017-07-18T04:15:36.684Z,21.73
2017-07-18T04:18:08.895Z,22.34
2017-07-18T04:20:40.626Z,22.44
2017-07-18T04:23:12.262Z,22.27
2017-07-18T04:25:43.662Z,22.41
2017-07-18T04:28:16.147Z,22.09
2017-07-18T04:30:47.666Z,21.93
2017-07-18T04:33:22.981Z,21.73
2017-07-18T04:35:54.595Z,21.55
2017-07-18T04:38:27.880Z,22.34
2017-07-18T04:40:59.710Z,22.54
2017-07-18T04:43:31.171Z,22.61
2017-07-18T04:46:03.592Z,22.54
2017-07-18T04:48:36.902Z,22.70
2017-07-18T04:51:08.492Z,22.56
2017-07-18T04:53:41.196Z,22.27
2017-07-18T04:56:12.970Z,22.71
2017-07-18T04:58:44.989Z,22.79
2017-07-18T05:01:16.827Z,22.32
2017-07-18T05:03:49.761Z,22.82
2017-07-18T05:06:24.468Z,22.31
2017-07-18T05:08:56.233Z,23.47
2017-07-18T05:11:28.427Z,22.98
2017-07-18T05:14:01.401Z,23.09
2017-07-18T05:16:33.161Z,23.14
2017-07-18T05:19:05.303Z,23.17
2017-07-18T05:21:38.923Z,23.59
2017-07-18T05:24:10.438Z,23.19
2017-07-18T05:26:41.827Z,23.31
2017-07-18T05:29:13.770Z,23.70
2017-07-18T05:31:46.993Z,22.86
2017-07-18T05:34:18.694Z,22.64
2017-07-18T05:36:50.449Z,23.28
2017-07-18T05:39:21.801Z,23.62
2017-07-18T05:41:53.173Z,23.27
2017-07-18T05:44:25.338Z,23.36
2017-07-18T05:46:56.611Z,23.93
2017-07-18T05:49:29.577Z,23.75
2017-07-18T05:52:00.917Z,23.87
2017-07-18T05:54:33.698Z,23.56
2017-07-18T05:57:06.452Z,23.59
2017-07-18T05:59:38.134Z,23.95
2017-07-18T06:02:09.665Z,24.63
2017-07-18T06:04:45.692Z,24.99
2017-07-18T06:07:17.930Z,24.96
2017-07-18T06:09:49.801Z,24.66
2017-07-18T06:12:21.235Z,24.85
2017-07-18T06:14:53.840Z,24.95
2017-07-18T06:17:25.565Z,24.58
2017-07-18T06:19:56.871Z,24.61
2017-07-18T06:22:29.986Z,24.92
2017-07-18T06:25:01.158Z,24.82
2017-07-18T06:27:32.412Z,24.84
2017-07-18T06:30:05.941Z,25.14
2017-07-18T06:32:37.214Z,25.30
2017-07-18T06:35:08.499Z,24.85
2017-07-18T06:37:40.146Z,24.71
2017-07-18T06:40:12.814Z,24.05
2017-07-18T06:42:46.449Z,24.39
2017-07-18T06:45:46.469Z,25.26
2017-07-18T06:48:21.132Z,25.46
2017-07-18T06:50:53.758Z,25.94
2017-07-18T06:53:26.924Z,25.78
2017-07-18T06:55:58.835Z,26.00
2017-07-18T06:58:34.375Z,26.95
2017-07-18T07:01:07.725Z,26.39
2017-07-18T07:03:42.387Z,25.76
2017-07-18T07:06:14.674Z,26.41
2017-07-18T07:08:46.867Z,26.95
2017-07-18T07:11:18.697Z,27.10
2017-07-18T07:13:51.172Z,26.82
2017-07-18T07:16:23.446Z,26.29
2017-07-18T07:18:56.234Z,26.36
2017-07-18T07:21:29.476Z,26.26
2017-07-18T07:24:02.350Z,25.88
2017-07-18T07:26:35.957Z,26.26
2017-07-18T07:29:08.393Z,25.33
2017-07-18T07:31:40.299Z,24.92
2017-07-18T07:34:19.488Z,25.07
2017-07-18T07:36:50.713Z,25.39
2017-07-18T07:39:23.454Z,25.73
2017-07-18T07:41:56.629Z,25.60
2017-07-18T07:44:28.638Z,25.50
2017-07-18T07:46:59.835Z,26.08
2017-07-18T07:49:32.231Z,26.27
2017-07-18T07:52:03.765Z,27.06
2017-07-18T07:54:35.011Z,26.54
2017-07-18T07:57:06.614Z,26.56
2017-07-18T07:59:39.025Z,26.19
2017-07-18T08:02:12.276Z,27.38
2017-07-18T08:04:43.552Z,28.32
2017-07-18T08:07:15.114Z,29.23
2017-07-18T08:09:47.731Z,28.33
2017-07-18T08:12:19.326Z,28.42
2017-07-18T08:17:31.635Z,30.52
2017-07-18T08:20:01.451Z,31.54
2017-07-18T08:22:31.809Z,31.34
2017-07-18T08:25:01.531Z,31.33
2017-07-18T08:27:33.702Z,30.86
2017-07-18T08:30:06.431Z,29.75
2017-07-18T08:32:38.767Z,29.44
2017-07-18T08:35:10.616Z,29.01
2017-07-18T08:37:42.658Z,28.70
2017-07-18T08:40:15.818Z,28.59
2017-07-18T08:42:47.981Z,29.38
2017-07-18T08:45:19.330Z,29.29
2017-07-18T08:47:50.745Z,30.36
2017-07-18T08:50:22.340Z,30.62
2017-07-18T08:52:54.397Z,31.26
2017-07-18T08:55:31.985Z,30.27
2017-07-18T08:58:03.657Z,30.29
2017-07-18T09:00:35.033Z,30.70
2017-07-18T09:03:06.262Z,29.83
2017-07-18T09:05:37.866Z,31.15
2017-07-18T09:08:09.470Z,30.47
2017-07-18T09:10:40.944Z,31.03
2017-07-18T09:13:13.928Z,31.25
2017-07-18T09:15:47.153Z,30.57
2017-07-18T09:18:18.737Z,30.30
2017-07-18T09:20:50.166Z,29.02
2017-07-18T09:23:23.684Z,29.22
2017-07-18T09:25:57.481Z,30.08
2017-07-18T09:28:29.829Z,31.11
2017-07-18T09:31:01.413Z,31.96
2017-07-18T09:33:33.277Z,33.08
2017-07-18T09:36:05.583Z,32.32
2017-07-18T09:38:58.311Z,32.71
2017-07-18T09:41:31.616Z,34.15
2017-07-18T09:44:04.054Z,34.98
2017-07-18T09:46:50.141Z,33.29
2017-07-18T09:49:27.491Z,34.39
2017-07-18T09:52:06.638Z,31.58
2017-07-18T09:54:38.326Z,32.89
2017-07-18T09:57:08.126Z,34.61
2017-07-18T09:59:39.382Z,34.21
2017-07-18T10:02:10.968Z,34.62
2017-07-18T10:04:40.785Z,35.13
2017-07-18T10:07:10.503Z,34.61
2017-07-18T10:09:42.047Z,33.59
2017-07-18T10:12:13.238Z,33.86
2017-07-18T10:14:44.608Z,33.35
2017-07-18T10:17:16.311Z,33.34
2017-07-18T10:19:46.091Z,32.78
2017-07-18T10:22:17.395Z,33.63
2017-07-18T10:24:48.789Z,33.16
2017-07-18T10:27:20.758Z,33.34
2017-07-18T10:29:52.668Z,33.24
2017-07-18T10:32:23.885Z,32.63
2017-07-18T10:34:55.818Z,31.78
2017-07-18T10:37:27.586Z,31.84
2017-07-18T10:39:58.918Z,31.33
2017-07-18T10:42:30.596Z,31.30
2017-07-18T10:45:02.315Z,31.69
2017-07-18T10:47:37.542Z,31.67
2017-07-18T10:50:16.915Z,32.89
2017-07-18T10:52:48.055Z,32.27
2017-07-18T10:55:19.863Z,32.83
2017-07-18T10:57:53.495Z,33.93
2017-07-18T11:00:24.713Z,33.66
2017-07-18T11:02:55.729Z,33.39
2017-07-18T11:05:25.666Z,34.00
2017-07-18T11:07:57.136Z,34.83
2017-07-18T11:10:29.113Z,34.24
2017-07-18T11:12:58.788Z,33.21
2017-07-18T11:15:29.895Z,34.57
2017-07-18T11:18:01.601Z,37.17
2017-07-18T11:20:32.759Z,36.78
2017-07-18T11:23:04.178Z,35.99
2017-07-18T11:25:36.862Z,33.01
2017-07-18T11:28:08.296Z,34.20
2017-07-18T11:30:38.759Z,35.47
2017-07-18T11:33:08.541Z,35.75
2017-07-18T11:35:38.588Z,35.13
2017-07-18T11:38:08.800Z,34.91
2017-07-18T11:40:38.535Z,33.77
2017-07-18T11:43:08.426Z,33.38
2017-07-18T11:45:38.431Z,33.21
2017-07-18T11:48:09.723Z,33.54
2017-07-18T11:50:40.853Z,33.21
2017-07-18T11:53:13.290Z,33.80
2017-07-18T11:55:42.989Z,35.62
2017-07-18T11:58:13.100Z,36.96
2017-07-18T12:00:44.366Z,39.12
2017-07-18T12:03:15.606Z,37.55
2017-07-18T12:05:46.905Z,37.50
2017-07-18T12:08:18.068Z,37.48
2017-07-18T12:10:49.682Z,38.72
2017-07-18T12:13:21.027Z,39.29
2017-07-18T12:15:52.774Z,40.10
2017-07-18T12:18:32.128Z,40.49
2017-07-18T12:21:05.897Z,40.09
2017-07-18T12:23:37.554Z,40.37
2017-07-18T12:26:08.782Z,40.33
2017-07-18T12:28:39.989Z,40.68
2017-07-18T12:31:11.716Z,40.42
2017-07-18T12:33:43.112Z,40.27
2017-07-18T12:36:14.645Z,38.99
2017-07-18T12:38:44.395Z,37.05
2017-07-18T12:41:14.213Z,37.86
2017-07-18T12:43:44.310Z,36.28
2017-07-18T12:46:14.088Z,36.41
2017-07-18T12:48:44.631Z,37.33
2017-07-18T12:51:16.369Z,39.39
2017-07-18T12:53:47.638Z,41.04
2017-07-18T12:56:19.008Z,38.91
2017-07-18T12:58:51.302Z,37.24
2017-07-18T13:01:23.694Z,36.51
2017-07-18T13:04:57.145Z,36.31
2017-07-18T13:07:26.897Z,38.10
2017-07-18T13:12:56.485Z,36.67
2017-07-18T13:15:26.375Z,36.44
2017-07-18T13:17:56.172Z,36.58
2017-07-18T13:20:27.664Z,35.98
2017-07-18T13:23:00.841Z,35.36
2017-07-18T13:25:32.396Z,36.90
2017-07-18T13:28:05.829Z,36.56
2017-07-18T13:30:37.544Z,35.96
2017-07-18T13:33:09.741Z,36.45
2017-07-18T13:35:41.730Z,38.65
2017-07-18T13:38:13.954Z,38.80
2017-07-18T13:40:44.056Z,39.63
2017-07-18T13:43:15.770Z,40.49
2017-07-18T13:45:47.211Z,40.94
2017-07-18T13:48:18.597Z,40.05
2017-07-18T13:50:49.040Z,38.60
2017-07-18T13:53:19.043Z,38.71
2017-07-18T13:55:48.872Z,38.58
2017-07-18T13:58:20.524Z,37.59
2017-07-18T14:00:51.771Z,38.66
2017-07-18T14:03:23.467Z,39.05
2017-07-18T14:05:54.821Z,39.75
2017-07-18T14:08:26.207Z,40.25
2017-07-18T14:10:56.353Z,40.19
2017-07-18T14:13:26.107Z,41.08
2017-07-18T14:15:55.858Z,40.52
2017-07-18T14:18:26.357Z,39.85
2017-07-18T14:20:56.002Z,39.45
2017-07-18T14:23:27.499Z,39.75
2017-07-18T14:26:00.362Z,40.39
2017-07-18T14:28:30.313Z,38.77
2017-07-18T14:31:04.953Z,38.11
2017-07-18T14:33:36.275Z,38.14
2017-07-18T14:36:08.134Z,38.51
2017-07-18T14:38:39.646Z,38.50
2017-07-18T14:41:11.082Z,38.11
2017-07-18T14:43:42.807Z,38.19
2017-07-18T14:46:13.597Z,37.48
2017-07-18T14:48:46.045Z,38.43
2017-07-18T14:51:17.787Z,38.22
2017-07-18T14:53:49.875Z,38.36
2017-07-18T14:56:21.147Z,38.80
2017-07-18T14:58:53.181Z,38.13
2017-07-18T15:01:24.572Z,38.95
2017-07-18T15:03:56.046Z,37.22
2017-07-18T15:06:27.444Z,36.75
2017-07-18T15:09:02.528Z,37.56
2017-07-18T15:11:34.705Z,35.86
2017-07-18T15:14:07.107Z,34.95
2017-07-18T15:16:42.289Z,34.24
2017-07-18T15:19:13.714Z,33.60
2017-07-18T15:21:45.424Z,34.68
2017-07-18T15:24:17.528Z,35.40
2017-07-18T15:26:49.139Z,36.63
2017-07-18T15:29:20.835Z,36.36
2017-07-18T15:31:52.132Z,36.45
2017-07-18T15:34:26.637Z,36.06
2017-07-18T15:37:00.438Z,35.32
2017-07-18T15:39:31.853Z,34.24
2017-07-18T15:42:06.227Z,33.74
2017-07-18T15:44:42.040Z,34.07
2017-07-18T15:47:13.352Z,34.97
2017-07-18T15:49:44.513Z,34.77
2017-07-18T15:52:19.572Z,34.84
2017-07-18T15:54:55.185Z,34.36
2017-07-18T15:57:26.960Z,34.83
2017-07-18T15:59:59.041Z,35.93
2017-07-18T16:02:30.330Z,36.60
2017-07-18T16:05:02.092Z,34.83
2017-07-18T16:07:33.331Z,34.48
2017-07-18T16:10:05.308Z,34.64
2017-07-18T16:12:36.878Z,35.04
2017-07-18T16:15:08.284Z,35.83
2017-07-18T16:17:39.620Z,35.83
2017-07-18T16:20:11.347Z,35.93
2017-07-18T16:22:42.545Z,35.32
2017-07-18T16:25:13.995Z,35.66
2017-07-18T16:27:45.960Z,35.26
2017-07-18T16:30:17.350Z,34.76
2017-07-18T16:32:48.915Z,34.67
2017-07-18T16:35:20.451Z,33.56
2017-07-18T16:37:52.264Z,32.79
2017-07-18T16:40:24.246Z,32.83
2017-07-18T16:42:55.587Z,30.34
2017-07-18T16:45:27.239Z,30.00
2017-07-18T16:48:00.769Z,30.90
2017-07-18T16:50:32.157Z,31.28
2017-07-18T16:53:03.730Z,31.04
2017-07-18T16:55:34.957Z,30.93
2017-07-18T16:58:06.376Z,30.92
2017-07-18T17:00:38.032Z,31.41
2017-07-18T17:03:10.156Z,31.54
2017-07-18T17:05:41.703Z,32.10
2017-07-18T17:08:13.346Z,31.92
2017-07-18T17:10:44.715Z,32.17
2017-07-18T17:13:17.157Z,32.34
2017-07-18T17:15:48.586Z,31.76
2017-07-18T17:18:19.931Z,32.28
2017-07-18T17:20:51.911Z,32.03
2017-07-18T17:23:23.176Z,31.83
2017-07-18T17:25:54.432Z,31.52
2017-07-18T17:28:26.048Z,31.43
2017-07-18T17:30:57.372Z,31.59
2017-07-18T17:33:31.706Z,31.39
2017-07-18T17:36:05.414Z,30.82
2017-07-18T17:38:38.675Z,30.34
2017-07-18T17:41:10.157Z,29.81
2017-07-18T17:43:41.764Z,29.58
2017-07-18T17:46:13.165Z,29.56
2017-07-18T17:48:44.818Z,29.61
2017-07-18T17:51:16.303Z,29.59
2017-07-18T17:53:47.514Z,29.33
2017-07-18T17:56:19.267Z,28.93
2017-07-18T17:58:50.488Z,28.81
2017-07-18T18:01:21.910Z,29.00
2017-07-18T18:03:53.660Z,28.37
2017-07-18T18:06:25.180Z,28.87
2017-07-18T18:08:56.970Z,28.79
2017-07-18T18:11:28.367Z,28.62
2017-07-18T18:13:59.640Z,28.51
2017-07-18T18:16:31.529Z,28.51
2017-07-18T18:19:08.052Z,28.59
2017-07-18T18:21:39.810Z,28.77
2017-07-18T18:24:12.137Z,29.09
2017-07-18T18:26:43.509Z,28.90
2017-07-18T18:29:15.045Z,28.15
2017-07-18T18:31:50.758Z,27.60
2017-07-18T18:34:22.024Z,28.23
2017-07-18T18:36:53.430Z,28.19
2017-07-18T18:39:25.521Z,28.53
2017-07-18T18:41:57.125Z,28.28
2017-07-18T18:44:28.518Z,27.91
2017-07-18T18:47:02.291Z,27.56
2017-07-18T18:49:33.835Z,27.57
2017-07-18T18:52:05.435Z,27.68
2017-07-18T18:54:37.537Z,28.10
2017-07-18T18:57:09.979Z,28.05
2017-07-18T18:59:41.582Z,28.14
2017-07-18T19:02:14.402Z,27.57
2017-07-18T19:04:46.543Z,27.06
2017-07-18T19:07:21.752Z,27.49
2017-07-18T19:09:53.494Z,27.19
2017-07-18T19:12:29.535Z,27.48
2017-07-18T19:15:02.786Z,27.29
2017-07-18T19:17:34.366Z,27.30
2017-07-18T19:20:06.262Z,26.66
2017-07-18T19:22:37.690Z,26.41
2017-07-18T19:25:11.988Z,26.28
2017-07-18T19:27:44.969Z,26.42
2017-07-18T19:30:17.695Z,26.05
2017-07-18T19:32:49.023Z,25.97
2017-07-18T19:35:20.877Z,25.49
2017-07-18T19:37:53.600Z,25.46
2017-07-18T19:40:25.405Z,25.77
2017-07-18T19:42:57.277Z,25.92
2017-07-18T19:45:29.154Z,25.56
2017-07-18T19:48:03.222Z,25.32
2017-07-18T19:50:36.100Z,25.42
2017-07-18T19:53:08.484Z,25.38
2017-07-18T19:55:41.716Z,25.83
2017-07-18T19:58:13.738Z,25.56
2017-07-18T20:00:45.716Z,25.50
2017-07-18T20:03:17.839Z,25.41
2017-07-18T20:05:49.598Z,25.52
2017-07-18T20:08:21.761Z,25.56
2017-07-18T20:10:53.544Z,25.52
2017-07-18T20:13:25.281Z,25.34
2017-07-18T20:15:56.571Z,25.36
2017-07-18T20:18:28.080Z,25.35
2017-07-18T20:20:59.599Z,24.82
2017-07-18T20:23:30.778Z,24.95
2017-07-18T20:26:04.528Z,24.80
2017-07-18T20:28:35.833Z,25.19
2017-07-18T20:31:07.912Z,24.47
2017-07-18T20:33:40.477Z,24.43
2017-07-18T20:36:11.954Z,24.12
2017-07-18T20:38:43.520Z,23.96
2017-07-18T20:41:15.494Z,24.09
2017-07-18T20:43:46.845Z,24.25
2017-07-18T20:46:18.465Z,24.25
2017-07-18T20:48:50.020Z,24.17
2017-07-18T20:51:21.462Z,24.22
2017-07-18T20:53:53.879Z,24.48
2017-07-18T20:56:25.608Z,24.24
2017-07-18T20:58:57.146Z,24.00
2017-07-18T21:01:28.860Z,23.93
2017-07-18T21:04:00.130Z,24.16
2017-07-18T21:06:31.640Z,24.02
2017-07-18T21:09:08.664Z,24.22
2017-07-18T21:11:40.094Z,24.11
2017-07-18T21:14:12.341Z,23.88
2017-07-18T21:16:44.415Z,23.77
2017-07-18T21:19:15.646Z,23.61
2017-07-18T21:21:47.010Z,23.42
2017-07-18T21:24:18.447Z,23.45
2017-07-18T21:26:50.463Z,23.42
2017-07-18T21:29:22.347Z,23.31
2017-07-18T21:31:53.816Z,23.27
2017-07-18T21:34:25.319Z,23.14
2017-07-18T21:36:57.732Z,22.68
2017-07-18T21:39:29.233Z,23.03
2017-07-18T21:42:03.332Z,22.75
2017-07-18T21:44:34.977Z,23.12
2017-07-18T21:47:10.339Z,22.99
2017-07-18T21:49:41.624Z,23.02
2017-07-18T21:52:13.144Z,23.00
2017-07-18T21:54:44.880Z,22.66
2017-07-18T21:57:16.394Z,22.96
2017-07-18T21:59:47.666Z,23.19
2017-07-18T22:02:19.850Z,23.05
2017-07-18T22:04:51.144Z,23.00
2017-07-18T22:07:22.655Z,22.80
2017-07-18T22:09:54.875Z,22.63
2017-07-18T22:12:27.149Z,22.90
2017-07-18T22:15:01.250Z,22.73
2017-07-18T22:17:33.145Z,22.48
2017-07-18T22:20:06.587Z,22.66
2017-07-18T22:22:40.010Z,22.70
2017-07-18T22:25:11.752Z,22.58
2017-07-18T22:27:43.145Z,22.74
2017-07-18T22:30:14.963Z,22.53
2017-07-18T22:32:46.581Z,22.45
2017-07-18T22:35:17.939Z,22.40
2017-07-18T22:37:49.641Z,22.26
2017-07-18T22:40:20.940Z,21.60
2017-07-18T22:42:52.544Z,21.85
2017-07-18T22:45:24.365Z,22.02
2017-07-18T22:47:56.099Z,21.67
2017-07-18T22:50:28.213Z,22.03
2017-07-18T22:53:02.000Z,22.02
2017-07-18T22:55:33.217Z,21.75
2017-07-18T22:58:06.950Z,21.70
2017-07-18T23:00:38.291Z,21.53
2017-07-18T23:03:09.706Z,21.84
2017-07-18T23:05:41.536Z,21.86
2017-07-18T23:08:13.057Z,21.76
2017-07-18T23:10:44.410Z,21.84
2017-07-18T23:13:16.227Z,21.64
2017-07-18T23:15:47.577Z,21.39
2017-07-18T23:18:19.322Z,21.74
2017-07-18T23:20:51.920Z,21.47
2017-07-18T23:23:23.676Z,21.24
2017-07-18T23:25:55.695Z,21.67
2017-07-18T23:28:28.305Z,21.64
2017-07-18T23:31:02.621Z,21.66
2017-07-18T23:33:34.903Z,21.56
2017-07-18T23:36:06.769Z,21.30
2017-07-18T23:38:38.494Z,21.62
2017-07-18T23:41:10.037Z,21.26
2017-07-18T23:43:41.280Z,21.30
2017-07-18T23:46:13.790Z,21.22
2017-07-18T23:48:45.331Z,21.11
2017-07-18T23:51:16.888Z,21.07
2017-07-18T23:53:48.812Z,20.84
2017-07-18T23:56:20.172Z,20.80
2017-07-18T23:58:52.385Z,20.99
